Vaughn, Washington
Current Conditions -  °F | °C
As of 12:53 PM on Tuesday 21 Oct 2014 (Local Time) from KTIW Reporting Station
Overcast Overcast  
Wind Chill: 57°   Ceiling: 6500
Heat Index: 57°   Visibility: 10mi
Dew Point: 49°   Wind: 14mph
Humidity: 74%   Direction: 180°S
Pressure: 29.93"   Gusts: NA
Location:  47.34°N, 122.77°W
Report Text: KTIW 211953Z 18012KT 10SM FEW015 OVC065 14/09 A2993 RMK AO2 RAB14E53 SLP135 P0000 T01390094
Loading
Personal Weather Stations






























Interactive Weather Map
Tropical Storm Tracking
New forecast layout! Learn more

10-Day Weather Forecast

Advertisements
Track Severe Weather on mobile